Terminal Aerodrome Forecast
Issued by NWS Kansas City/Pleasant Hill, MO

Home | Current Version | Previous Version | Text Only | Print | Product List | Glossary On
Versions: 1 2 3 4 5 6 7 8 9 10 11 12 13 14
000
FTUS43 KEAX 061722
TAFMCI
TAF
KMCI 061722Z 0618/0718 32013G21KT P6SM SKC
     FM062200 28008KT P6SM FEW250
     FM070600 32004KT P6SM BKN090
     FM071500 35007KT P6SM -SN OVC035=

USA.gov is the U.S. government's official web portal to all federal, state and local government web resources and services.